createdAt,value
2023-04-19T00:01:44.580Z,23.42
2023-04-19T00:04:16.252Z,28.98
2023-04-19T00:06:47.547Z,29.08
2023-04-19T00:09:18.305Z,28.92
2023-04-19T00:11:49.303Z,27.05
2023-04-19T00:14:20.171Z,26.85
2023-04-19T00:16:54.102Z,28.23
2023-04-19T00:19:24.996Z,25.35
2023-04-19T00:21:55.829Z,26.25
2023-04-19T00:24:26.627Z,25.90
2023-04-19T00:26:57.653Z,28.83
2023-04-19T00:29:28.539Z,27.38
2023-04-19T00:32:02.329Z,25.17
2023-04-19T00:34:34.572Z,26.65
2023-04-19T00:37:05.662Z,32.30
2023-04-19T00:39:36.933Z,27.98
2023-04-19T00:42:09.647Z,30.27
2023-04-19T00:44:40.625Z,31.13
2023-04-19T00:47:14.013Z,29.02
2023-04-19T00:49:44.876Z,31.42
2023-04-19T00:52:15.869Z,28.83
2023-04-19T00:54:48.416Z,31.00
2023-04-19T00:57:20.784Z,30.00
2023-04-19T00:59:54.689Z,29.77
2023-04-19T01:02:28.870Z,26.80
2023-04-19T01:04:59.750Z,26.50
2023-04-19T01:07:30.765Z,29.08
2023-04-19T01:10:01.930Z,30.10
2023-04-19T01:12:33.211Z,31.45
2023-04-19T01:15:04.042Z,30.52
2023-04-19T01:17:38.380Z,31.42
2023-04-19T01:20:11.730Z,34.88
2023-04-19T01:22:45.184Z,27.58
2023-04-19T01:25:16.268Z,30.20
2023-04-19T01:27:47.439Z,26.33
2023-04-19T01:30:18.416Z,29.13
2023-04-19T01:32:49.228Z,30.35
2023-04-19T01:35:20.188Z,30.02
2023-04-19T01:37:55.804Z,28.45
2023-04-19T01:40:28.131Z,28.17
2023-04-19T01:42:58.911Z,31.17
2023-04-19T01:45:30.485Z,28.88
2023-04-19T01:48:01.899Z,29.35
2023-04-19T01:50:32.799Z,27.38
2023-04-19T01:53:06.205Z,27.67
2023-04-19T01:55:37.047Z,28.23
2023-04-19T01:58:07.877Z,29.52
2023-04-19T02:00:38.728Z,28.25
2023-04-19T02:03:09.733Z,27.30
2023-04-19T02:05:42.531Z,29.38
2023-04-19T02:08:15.935Z,32.50
2023-04-19T02:10:46.681Z,28.73
2023-04-19T02:13:17.624Z,28.30
2023-04-19T02:15:48.492Z,28.50
2023-04-19T02:18:19.242Z,26.65
2023-04-19T02:20:50.797Z,27.27
2023-04-19T02:23:24.215Z,28.45
2023-04-19T02:25:55.108Z,31.42
2023-04-19T02:28:26.040Z,26.38
2023-04-19T02:30:56.788Z,30.40
2023-04-19T02:33:29.396Z,28.92
2023-04-19T02:36:00.198Z,30.48
2023-04-19T02:38:33.637Z,28.80
2023-04-19T02:41:04.778Z,28.50
2023-04-19T02:43:35.548Z,31.13
2023-04-19T02:46:06.834Z,29.55
2023-04-19T02:48:37.730Z,27.40
2023-04-19T02:51:08.954Z,29.27
2023-04-19T02:53:44.495Z,27.90
2023-04-19T02:56:15.977Z,28.40
2023-04-19T02:58:46.852Z,29.38
2023-04-19T03:01:17.798Z,31.33
2023-04-19T03:03:48.830Z,28.50
2023-04-19T03:06:19.916Z,27.30
2023-04-19T03:08:53.435Z,30.13
2023-04-19T03:11:25.001Z,26.88
2023-04-19T03:13:57.696Z,32.15
2023-04-19T03:16:30.611Z,28.90
2023-04-19T03:19:01.998Z,30.25
2023-04-19T03:21:37.908Z,27.63
2023-04-19T03:24:12.081Z,27.02
2023-04-19T03:26:46.811Z,29.48
2023-04-19T03:29:18.577Z,24.45
2023-04-19T03:31:58.788Z,31.75
2023-04-19T03:34:29.612Z,30.02
2023-04-19T03:37:00.502Z,27.20
2023-04-19T03:39:33.887Z,29.30
2023-04-19T03:42:08.291Z,27.75
2023-04-19T03:44:49.086Z,27.17
2023-04-19T03:47:22.249Z,31.60
2023-04-19T03:49:54.904Z,29.08
2023-04-19T03:52:26.180Z,34.17
2023-04-19T03:54:59.640Z,29.92
2023-04-19T03:57:38.282Z,31.02
2023-04-19T04:00:19.197Z,32.17
2023-04-19T04:02:57.285Z,29.50
2023-04-19T04:05:30.385Z,30.73
2023-04-19T04:08:01.871Z,29.88
2023-04-19T04:10:35.575Z,31.92
2023-04-19T04:13:06.429Z,33.08
2023-04-19T04:15:45.327Z,33.40
2023-04-19T04:18:17.332Z,35.35
2023-04-19T04:20:50.041Z,29.88
2023-04-19T04:23:21.747Z,38.25
2023-04-19T04:26:05.521Z,31.17
2023-04-19T04:28:52.353Z,33.35
2023-04-19T04:31:23.469Z,31.27
2023-04-19T04:33:55.554Z,33.60
2023-04-19T04:36:26.844Z,32.65
2023-04-19T04:39:02.155Z,31.88
2023-04-19T04:41:36.619Z,36.42
2023-04-19T04:44:12.904Z,30.85
2023-04-19T04:46:45.781Z,30.02
2023-04-19T04:49:21.718Z,30.08
2023-04-19T04:51:55.498Z,35.10
2023-04-19T04:54:26.531Z,31.40
2023-04-19T04:57:03.032Z,32.72
2023-04-19T04:59:34.537Z,33.08
2023-04-19T05:02:08.313Z,34.08
2023-04-19T05:04:39.215Z,34.08
2023-04-19T05:07:10.154Z,33.20
2023-04-19T05:09:41.938Z,30.83
2023-04-19T05:12:15.858Z,31.90
2023-04-19T05:14:46.812Z,32.55
2023-04-19T05:17:17.764Z,33.40
2023-04-19T05:19:50.231Z,32.78
2023-04-19T05:22:21.532Z,30.92
2023-04-19T05:24:52.855Z,34.05
2023-04-19T05:27:26.418Z,32.08
2023-04-19T05:29:58.158Z,32.53
2023-04-19T05:32:30.353Z,34.35
2023-04-19T05:35:03.256Z,32.45
2023-04-19T05:37:34.215Z,34.80
2023-04-19T05:40:10.413Z,31.92
2023-04-19T05:42:44.002Z,35.42
2023-04-19T05:45:15.952Z,32.75
2023-04-19T05:47:46.933Z,33.90
2023-04-19T05:50:40.299Z,32.67
2023-04-19T05:53:32.109Z,36.20
2023-04-19T05:56:03.050Z,32.63
2023-04-19T05:58:36.951Z,33.65
2023-04-19T06:01:07.979Z,33.35
2023-04-19T06:03:39.152Z,31.50
2023-04-19T06:06:11.001Z,34.05
2023-04-19T06:08:42.280Z,34.25
2023-04-19T06:11:23.250Z,32.78
2023-04-19T06:14:02.535Z,31.85
2023-04-19T06:16:33.565Z,31.73
2023-04-19T06:19:04.580Z,33.33
2023-04-19T06:21:36.023Z,30.58
2023-04-19T06:24:07.283Z,27.15
2023-04-19T06:26:38.291Z,28.98
2023-04-19T06:29:11.916Z,31.02
2023-04-19T06:31:43.230Z,16.73
2023-04-19T06:34:14.188Z,26.95
2023-04-19T06:36:45.118Z,29.42
2023-04-19T06:39:15.948Z,30.52
2023-04-19T06:41:46.818Z,28.75
2023-04-19T06:44:23.309Z,29.50
2023-04-19T06:46:54.226Z,27.60
2023-04-19T06:49:25.608Z,31.45
2023-04-19T06:51:56.604Z,29.92
2023-04-19T06:54:27.899Z,28.77
2023-04-19T06:56:59.373Z,31.90
2023-04-19T06:59:34.010Z,30.33
2023-04-19T07:02:04.866Z,28.83
2023-04-19T07:04:36.888Z,30.90
2023-04-19T07:07:07.825Z,19.63
2023-04-19T07:09:38.666Z,19.75
2023-04-19T07:12:10.062Z,21.02
2023-04-19T07:14:43.636Z,23.10
2023-04-19T07:17:14.742Z,24.25
2023-04-19T07:19:45.670Z,24.27
2023-04-19T07:22:16.478Z,28.73
2023-04-19T07:24:47.684Z,26.55
2023-04-19T07:27:19.517Z,27.35
2023-04-19T07:29:52.976Z,23.75
2023-04-19T07:32:23.936Z,26.25
2023-04-19T07:34:54.993Z,24.80
2023-04-19T07:37:26.030Z,27.85
2023-04-19T07:39:56.822Z,23.73
2023-04-19T07:42:28.433Z,24.77
2023-04-19T07:45:02.613Z,24.40
2023-04-19T07:47:34.395Z,28.38
2023-04-19T07:50:06.311Z,28.33
2023-04-19T07:52:37.140Z,25.45
2023-04-19T07:55:09.107Z,27.65
2023-04-19T07:57:40.084Z,26.75
2023-04-19T08:00:15.578Z,25.95
2023-04-19T08:02:48.022Z,23.73
2023-04-19T08:05:20.436Z,26.10
2023-04-19T08:07:51.641Z,23.52
2023-04-19T08:10:23.601Z,24.98
2023-04-19T08:13:05.169Z,25.52
2023-04-19T08:20:44.574Z,24.27
2023-04-19T08:23:24.159Z,23.05
2023-04-19T08:25:58.506Z,25.15
2023-04-19T08:28:29.388Z,22.65
2023-04-19T08:31:03.052Z,24.13
2023-04-19T08:33:33.959Z,24.02
2023-04-19T08:36:04.805Z,25.70
2023-04-19T08:38:35.664Z,20.45
2023-04-19T08:41:06.510Z,22.45
2023-04-19T08:43:41.245Z,22.95
2023-04-19T08:46:16.059Z,27.10
2023-04-19T08:48:48.661Z,23.85
2023-04-19T08:51:20.970Z,27.33
2023-04-19T08:53:52.744Z,26.48
2023-04-19T08:56:34.881Z,26.13
2023-04-19T08:59:19.748Z,23.20
2023-04-19T09:01:54.741Z,28.20
2023-04-19T09:04:36.375Z,26.45
2023-04-19T09:07:08.758Z,23.60
2023-04-19T09:09:55.634Z,23.55
2023-04-19T09:12:30.820Z,25.35
2023-04-19T09:15:05.125Z,22.17
2023-04-19T09:17:39.261Z,23.58
2023-04-19T09:20:11.132Z,21.25
2023-04-19T09:22:42.057Z,23.58
2023-04-19T09:25:37.798Z,23.05
2023-04-19T09:28:13.351Z,23.15
2023-04-19T09:30:58.203Z,23.83
2023-04-19T09:33:41.949Z,22.33
2023-04-19T09:36:14.675Z,22.63
2023-04-19T09:38:52.752Z,18.67
2023-04-19T09:41:23.826Z,23.80
2023-04-19T09:46:37.542Z,18.00
2023-04-19T09:49:33.752Z,22.73
2023-04-19T09:52:17.805Z,21.58
2023-04-19T09:54:49.325Z,21.30
2023-04-19T09:57:20.500Z,17.38
2023-04-19T09:59:51.272Z,19.00
2023-04-19T10:02:23.917Z,20.08
2023-04-19T10:07:36.260Z,20.52
2023-04-19T10:10:19.389Z,19.45
2023-04-19T10:15:33.867Z,18.93
2023-04-19T10:18:14.462Z,17.80
2023-04-19T10:20:55.698Z,22.20
2023-04-19T10:23:26.852Z,20.58
2023-04-19T10:26:00.808Z,18.25
2023-04-19T10:28:33.425Z,15.73
2023-04-19T10:31:06.043Z,20.65
2023-04-19T10:33:40.106Z,17.23
2023-04-19T10:36:18.825Z,18.60
2023-04-19T10:38:52.501Z,16.90
2023-04-19T10:41:23.441Z,18.40
2023-04-19T10:44:17.557Z,17.23
2023-04-19T10:46:48.348Z,16.95
2023-04-19T10:49:19.461Z,16.85
2023-04-19T10:51:55.190Z,16.13
2023-04-19T10:54:34.441Z,17.52
2023-04-19T10:57:07.467Z,15.73
2023-04-19T10:59:39.419Z,19.40
2023-04-19T11:02:32.912Z,13.52
2023-04-19T11:05:07.430Z,17.92
2023-04-19T11:07:49.033Z,17.00
2023-04-19T11:10:32.572Z,16.35
2023-04-19T11:13:04.319Z,16.58
2023-04-19T11:15:35.313Z,15.90
2023-04-19T11:18:12.590Z,14.48
2023-04-19T11:20:46.681Z,12.93
2023-04-19T11:23:22.740Z,13.00
2023-04-19T11:25:55.640Z,15.60
2023-04-19T11:28:26.614Z,10.43
2023-04-19T11:30:58.413Z,15.52
2023-04-19T11:33:29.258Z,12.90
2023-04-19T11:36:00.301Z,19.73
2023-04-19T11:38:35.553Z,13.07
2023-04-19T11:41:07.759Z,11.93
2023-04-19T11:43:39.634Z,12.90
2023-04-19T11:46:11.606Z,13.10
2023-04-19T11:48:42.962Z,11.85
2023-04-19T11:51:14.738Z,10.43
2023-04-19T11:53:48.359Z,10.00
2023-04-19T11:56:19.397Z,9.48
2023-04-19T11:58:51.619Z,12.18
2023-04-19T12:01:25.260Z,9.65
2023-04-19T12:03:57.929Z,9.48
2023-04-19T12:06:31.139Z,20.63
2023-04-19T12:09:10.415Z,10.85
2023-04-19T12:11:50.397Z,8.50
2023-04-19T12:14:23.226Z,13.82
2023-04-19T12:17:14.071Z,10.40
2023-04-19T12:19:50.015Z,11.02
2023-04-19T12:22:24.450Z,10.00
2023-04-19T12:24:58.274Z,10.85
2023-04-19T12:27:29.166Z,7.20
2023-04-19T12:30:00.197Z,8.55
2023-04-19T12:32:31.131Z,6.53
2023-04-19T12:35:01.889Z,9.55
2023-04-19T12:37:32.781Z,9.40
2023-04-19T12:40:07.032Z,19.55
2023-04-19T12:42:37.852Z,7.00
2023-04-19T12:45:09.917Z,8.95
2023-04-19T12:47:40.774Z,7.40
2023-04-19T12:50:12.597Z,11.95
2023-04-19T12:52:43.805Z,8.85
2023-04-19T12:55:17.205Z,7.57
2023-04-19T12:57:48.074Z,9.15
2023-04-19T13:00:19.678Z,14.35
2023-04-19T13:02:51.413Z,8.70
2023-04-19T13:05:22.255Z,7.68
2023-04-19T13:07:53.099Z,8.35
2023-04-19T13:10:26.644Z,6.50
2023-04-19T13:12:59.310Z,7.75
2023-04-19T13:15:30.935Z,8.07
2023-04-19T13:18:01.825Z,6.22
2023-04-19T13:20:32.843Z,6.55
2023-04-19T13:23:03.609Z,6.00
2023-04-19T13:25:37.008Z,9.52
2023-04-19T13:28:08.024Z,9.32
2023-04-19T13:30:38.794Z,8.07
2023-04-19T13:33:09.783Z,5.22
2023-04-19T13:35:40.638Z,6.13
2023-04-19T13:38:11.503Z,5.13
2023-04-19T13:40:45.425Z,6.38
2023-04-19T13:43:16.269Z,5.10
2023-04-19T13:45:47.100Z,4.68
2023-04-19T13:48:17.918Z,6.75
2023-04-19T13:50:50.937Z,4.93
2023-04-19T13:53:21.908Z,7.18
2023-04-19T13:55:55.313Z,7.00
2023-04-19T13:58:27.312Z,8.85
2023-04-19T14:00:58.251Z,7.43
2023-04-19T14:03:29.235Z,6.43
2023-04-19T14:06:00.191Z,4.70
2023-04-19T14:08:30.917Z,4.45
2023-04-19T14:11:04.344Z,4.50
2023-04-19T14:13:35.403Z,3.72
2023-04-19T14:16:06.442Z,4.90
2023-04-19T14:18:37.296Z,6.30
2023-04-19T14:21:08.704Z,4.68
2023-04-19T14:23:39.618Z,4.43
2023-04-19T14:26:13.056Z,5.30
2023-04-19T14:28:44.044Z,3.85
2023-04-19T14:31:14.968Z,5.30
2023-04-19T14:33:45.876Z,4.35
2023-04-19T14:36:16.745Z,3.53
2023-04-19T14:38:47.585Z,4.70
2023-04-19T14:41:21.077Z,5.00
2023-04-19T14:43:52.814Z,4.35
2023-04-19T14:46:23.796Z,4.05
2023-04-19T14:48:54.750Z,3.88
2023-04-19T14:51:25.449Z,5.00
2023-04-19T14:53:56.268Z,4.22
2023-04-19T14:56:29.731Z,5.90
2023-04-19T14:59:00.803Z,9.73
2023-04-19T15:01:31.794Z,5.22
2023-04-19T15:04:02.826Z,5.15
2023-04-19T15:06:34.312Z,3.42
2023-04-19T15:09:05.608Z,3.78
2023-04-19T15:11:38.974Z,4.85
2023-04-19T15:14:10.108Z,3.65
2023-04-19T15:16:40.944Z,4.85
2023-04-19T15:19:11.881Z,3.70
2023-04-19T15:21:42.701Z,3.50
2023-04-19T15:24:13.561Z,5.45
2023-04-19T15:26:47.065Z,3.28
2023-04-19T15:29:18.327Z,3.25
2023-04-19T15:31:49.358Z,4.15
2023-04-19T15:34:20.260Z,4.55
2023-04-19T15:36:51.801Z,3.33
2023-04-19T15:39:22.699Z,4.03
2023-04-19T15:41:56.202Z,6.78
2023-04-19T15:44:27.068Z,4.88
2023-04-19T15:46:57.983Z,6.30
2023-04-19T15:49:28.941Z,5.10
2023-04-19T15:51:59.693Z,5.43
2023-04-19T15:54:31.165Z,4.32
2023-04-19T15:57:04.925Z,5.07
2023-04-19T15:59:36.134Z,5.38
2023-04-19T16:02:07.315Z,4.78
2023-04-19T16:04:38.996Z,6.35
2023-04-19T16:07:10.081Z,3.58
2023-04-19T16:09:41.357Z,6.55
2023-04-19T16:12:14.777Z,5.85
2023-04-19T16:14:45.674Z,4.22
2023-04-19T16:17:16.525Z,5.32
2023-04-19T16:19:47.416Z,4.28
2023-04-19T16:22:18.337Z,8.02
2023-04-19T16:24:49.489Z,4.78
2023-04-19T16:27:23.006Z,5.10
2023-04-19T16:29:53.939Z,6.53
2023-04-19T16:32:24.896Z,6.82
2023-04-19T16:34:55.957Z,8.63
2023-04-19T16:37:26.801Z,5.65
2023-04-19T16:39:57.804Z,5.45
2023-04-19T16:42:31.282Z,5.80
2023-04-19T16:45:02.151Z,5.90
2023-04-19T16:47:33.240Z,5.45
2023-04-19T16:50:06.457Z,5.60
2023-04-19T16:52:38.447Z,6.38
2023-04-19T16:55:10.435Z,4.43
2023-04-19T16:57:44.080Z,4.18
2023-04-19T17:00:16.576Z,5.28
2023-04-19T17:02:47.530Z,7.30
2023-04-19T17:05:18.580Z,5.40
2023-04-19T17:07:49.493Z,5.10
2023-04-19T17:10:20.511Z,5.63
2023-04-19T17:12:55.906Z,5.18
2023-04-19T17:15:27.114Z,6.40
2023-04-19T17:17:57.960Z,5.82
2023-04-19T17:20:28.855Z,4.55
2023-04-19T17:22:59.650Z,4.30
2023-04-19T17:25:30.642Z,4.45
2023-04-19T17:28:04.116Z,5.30
2023-04-19T17:30:35.328Z,4.20
2023-04-19T17:33:06.413Z,4.70
2023-04-19T17:35:37.340Z,4.82
2023-04-19T17:38:08.216Z,4.18
2023-04-19T17:40:39.197Z,5.05
2023-04-19T17:43:14.131Z,5.45
2023-04-19T17:45:45.400Z,4.93
2023-04-19T17:48:16.436Z,4.50
2023-04-19T17:50:47.295Z,6.95
2023-04-19T17:53:18.217Z,5.40
2023-04-19T17:55:49.004Z,4.65
2023-04-19T17:58:22.677Z,5.75
2023-04-19T18:00:53.597Z,7.90
2023-04-19T18:03:24.502Z,5.00
2023-04-19T18:05:55.613Z,5.38
2023-04-19T18:08:26.587Z,6.35
2023-04-19T18:10:57.536Z,4.13
2023-04-19T18:13:31.776Z,5.57
2023-04-19T18:16:03.735Z,4.05
2023-04-19T18:18:34.758Z,3.58
2023-04-19T18:21:09.652Z,5.88
2023-04-19T18:23:40.905Z,4.82
2023-04-19T18:26:11.791Z,4.93
2023-04-19T18:28:45.587Z,3.60
2023-04-19T18:31:16.703Z,4.15
2023-04-19T18:33:47.594Z,6.50
2023-04-19T18:36:18.689Z,6.35
2023-04-19T18:38:49.538Z,6.55
2023-04-19T18:41:20.466Z,6.05
2023-04-19T18:44:24.702Z,4.97
2023-04-19T18:46:45.842Z,6.65
2023-04-19T18:49:16.958Z,6.70
2023-04-19T18:51:47.966Z,13.65
2023-04-19T18:54:19.707Z,14.45
2023-04-19T18:57:21.070Z,21.40
2023-04-19T18:59:44.049Z,5.95
2023-04-19T19:02:14.971Z,8.27
2023-04-19T19:04:56.076Z,6.85
2023-04-19T19:10:14.905Z,6.35
2023-04-19T19:12:49.099Z,11.52
2023-04-19T19:15:22.815Z,7.85
2023-04-19T19:17:53.745Z,5.95
2023-04-19T19:20:24.873Z,6.07
2023-04-19T19:22:55.809Z,5.93
2023-04-19T19:25:27.296Z,7.47
2023-04-19T19:28:06.299Z,6.85
2023-04-19T19:30:45.219Z,6.00
2023-04-19T19:33:16.724Z,6.05
2023-04-19T19:35:47.813Z,5.47
2023-04-19T19:38:18.856Z,5.88
2023-04-19T19:43:23.672Z,5.97
2023-04-19T19:45:57.135Z,6.75
2023-04-19T19:48:30.224Z,7.07
2023-04-19T19:51:33.767Z,7.00
2023-04-19T19:53:53.088Z,6.15
2023-04-19T19:58:56.377Z,6.57
2023-04-19T20:01:31.774Z,7.30
2023-04-19T20:04:03.367Z,7.43
2023-04-19T20:07:24.775Z,6.05
2023-04-19T20:09:28.015Z,6.63
2023-04-19T20:11:58.972Z,6.20
2023-04-19T20:14:30.189Z,7.43
2023-04-19T20:17:04.086Z,6.63
2023-04-19T20:19:36.165Z,6.95
2023-04-19T20:22:07.032Z,6.93
2023-04-19T20:24:38.270Z,8.10
2023-04-19T20:27:09.138Z,8.90
2023-04-19T20:29:39.980Z,9.65
2023-04-19T20:32:13.437Z,12.90
2023-04-19T20:34:44.397Z,8.90
2023-04-19T20:37:15.278Z,10.55
2023-04-19T20:39:46.109Z,10.25
2023-04-19T20:42:17.068Z,10.25
2023-04-19T20:44:47.924Z,12.45
2023-04-19T20:47:22.060Z,12.18
2023-04-19T20:49:52.866Z,14.57
2023-04-19T20:52:23.902Z,12.75
2023-04-19T20:54:54.851Z,10.10
2023-04-19T20:57:25.705Z,9.48
2023-04-19T20:59:56.612Z,12.77
2023-04-19T21:02:30.514Z,14.43
2023-04-19T21:05:01.341Z,12.23
2023-04-19T21:07:32.227Z,13.07
2023-04-19T21:10:03.298Z,11.55
2023-04-19T21:12:34.520Z,13.32
2023-04-19T21:15:05.424Z,11.70
2023-04-19T21:17:38.956Z,10.90
2023-04-19T21:20:12.628Z,11.75
2023-04-19T21:22:44.300Z,18.13
2023-04-19T21:25:16.372Z,14.82
2023-04-19T21:27:47.174Z,12.90
2023-04-19T21:30:18.346Z,11.43
2023-04-19T21:32:51.851Z,13.55
2023-04-19T21:35:22.960Z,17.88
2023-04-19T21:37:53.774Z,11.63
2023-04-19T21:40:25.177Z,11.68
2023-04-19T21:42:56.090Z,12.27
2023-04-19T21:45:27.086Z,11.68
2023-04-19T21:48:00.538Z,12.07
2023-04-19T21:50:31.810Z,14.50
2023-04-19T21:53:02.636Z,10.73
2023-04-19T21:55:35.008Z,12.10
2023-04-19T21:58:05.937Z,13.55
2023-04-19T22:00:36.793Z,12.73
2023-04-19T22:03:10.409Z,11.30
2023-04-19T22:05:41.350Z,14.13
2023-04-19T22:08:12.344Z,12.02
2023-04-19T22:10:43.652Z,9.75
2023-04-19T22:13:14.539Z,10.57
2023-04-19T22:15:45.696Z,11.80
2023-04-19T22:18:19.049Z,10.80
2023-04-19T22:20:51.144Z,10.15
2023-04-19T22:23:21.993Z,10.48
2023-04-19T22:25:52.783Z,10.55
2023-04-19T22:28:23.569Z,10.35
2023-04-19T22:30:54.870Z,10.07
2023-04-19T22:33:28.224Z,10.95
2023-04-19T22:35:59.149Z,9.55
2023-04-19T22:38:29.973Z,9.85
2023-04-19T22:41:01.273Z,11.48
2023-04-19T22:43:32.082Z,9.20
2023-04-19T22:46:03.022Z,10.10
2023-04-19T22:48:36.678Z,10.32
2023-04-19T22:51:07.836Z,9.07
2023-04-19T22:53:39.613Z,7.80
2023-04-19T22:56:10.852Z,9.13
2023-04-19T22:58:41.720Z,7.75
2023-04-19T23:01:12.728Z,10.23
2023-04-19T23:03:46.178Z,9.68
2023-04-19T23:06:18.165Z,8.68
2023-04-19T23:08:48.934Z,9.32
2023-04-19T23:11:19.694Z,8.43
2023-04-19T23:13:53.033Z,8.07
2023-04-19T23:16:24.491Z,9.90
2023-04-19T23:18:58.070Z,9.88
2023-04-19T23:21:30.326Z,8.63
2023-04-19T23:24:01.294Z,10.75
2023-04-19T23:26:33.009Z,8.70
2023-04-19T23:29:03.780Z,8.82
2023-04-19T23:31:34.617Z,9.52
2023-04-19T23:34:08.044Z,7.38
2023-04-19T23:36:39.001Z,9.02
2023-04-19T23:39:09.745Z,7.28
2023-04-19T23:41:40.548Z,8.30
2023-04-19T23:44:11.335Z,7.88
2023-04-19T23:46:42.350Z,8.32
2023-04-19T23:49:16.133Z,8.20
2023-04-19T23:51:49.136Z,8.32
2023-04-19T23:54:22.501Z,10.32
2023-04-19T23:56:53.246Z,10.70
2023-04-19T23:59:27.080Z,9.38
